Time;durP1;ratioP1;P1;durP2;ratioP2;P2;SDS_P1;SDS_P2;PMS_P1;PMS_P2;Temp;Humidity;BMP_temperature;BMP_pressure;BME280_temperature;BME280_humidity;BME280_pressure;Samples;Min_cycle;Max_cycle;Signal;HPM_P1;HPM_P2
2023/07/19 00:00:44;;;;;;;4.47;2.10;;;20.40;52.50;;;;;;4834221;29;20089;-44
2023/07/19 00:03:13;;;;;;;4.50;1.77;;;20.30;52.80;;;;;;4836530;29;20042;-47
2023/07/19 00:05:42;;;;;;;2.78;1.90;;;20.30;52.50;;;;;;4838388;29;20042;-45
2023/07/19 00:08:11;;;;;;;2.55;1.90;;;20.30;52.80;;;;;;4839101;29;20137;-47
2023/07/19 00:10:42;;;;;;;2.50;1.70;;;20.20;53.00;;;;;;4833802;29;20069;-44
2023/07/19 00:13:09;;;;;;;2.05;1.45;;;20.20;53.00;;;;;;4834034;29;20050;-45
2023/07/19 00:15:38;;;;;;;1.88;1.63;;;20.20;52.80;;;;;;4839186;29;20038;-46
2023/07/19 00:18:10;;;;;;;2.63;1.50;;;20.10;52.80;;;;;;4838705;29;20148;-46
2023/07/19 00:20:36;;;;;;;1.63;1.52;;;20.10;52.90;;;;;;4833244;29;20038;-45
2023/07/19 00:23:06;;;;;;;4.00;1.73;;;20.10;53.00;;;;;;4836638;29;20560;-46
2023/07/19 00:25:45;;;;;;;1.83;1.67;;;20.00;52.90;;;;;;4834707;29;20049;-44
2023/07/19 00:28:13;;;;;;;2.33;1.80;;;20.00;53.10;;;;;;4836314;29;20042;-45
2023/07/19 00:30:40;;;;;;;3.70;1.70;;;20.00;53.00;;;;;;4837777;29;20517;-48
2023/07/19 00:33:07;;;;;;;3.70;1.80;;;19.90;52.90;;;;;;4838254;29;20050;-45
2023/07/19 00:35:43;;;;;;;3.38;1.50;;;19.90;53.00;;;;;;4838860;29;20050;-43
2023/07/19 00:38:13;;;;;;;1.85;1.65;;;19.80;53.40;;;;;;4831923;29;20479;-46
2023/07/19 00:40:41;;;;;;;2.42;1.77;;;19.80;53.10;;;;;;4834413;29;20046;-48
2023/07/19 00:43:10;;;;;;;1.80;1.55;;;19.80;53.20;;;;;;4822810;29;20221;-44
2023/07/19 00:45:53;;;;;;;2.30;1.52;;;19.70;53.20;;;;;;4828964;29;20096;-46
2023/07/19 00:48:22;;;;;;;5.20;1.95;;;19.70;53.80;;;;;;4850893;29;20049;-45
2023/07/19 00:50:53;;;;;;;2.53;2.22;;;19.60;53.30;;;;;;4830925;29;20077;-45
2023/07/19 00:53:22;;;;;;;2.17;1.65;;;19.60;53.30;;;;;;4836749;29;20046;-44
2023/07/19 00:55:56;;;;;;;3.65;1.73;;;19.60;53.50;;;;;;4836049;29;20048;-45
2023/07/19 00:58:35;;;;;;;2.17;1.50;;;19.50;53.40;;;;;;4851925;29;20049;-45
2023/07/19 01:01:05;;;;;;;2.13;1.85;;;19.50;53.40;;;;;;4839464;29;20038;-46
2023/07/19 01:03:33;;;;;;;2.08;1.58;;;19.50;53.50;;;;;;4834882;29;20048;-47
2023/07/19 01:06:00;;;;;;;1.98;1.60;;;19.40;53.50;;;;;;4835400;29;20065;-47
2023/07/19 01:08:27;;;;;;;1.95;1.73;;;19.30;53.50;;;;;;4836794;29;20623;-47
2023/07/19 01:10:54;;;;;;;3.25;2.00;;;19.30;53.60;;;;;;4837059;29;20069;-48
2023/07/19 01:13:23;;;;;;;2.65;1.85;;;19.30;53.70;;;;;;4836614;29;20473;-46
2023/07/19 01:15:54;;;;;;;2.88;1.85;;;19.30;53.80;;;;;;4838595;29;20608;-46
2023/07/19 01:18:23;;;;;;;2.70;1.55;;;19.30;53.90;;;;;;4837990;29;20114;-45
2023/07/19 01:20:52;;;;;;;3.05;2.05;;;19.20;53.90;;;;;;4836093;29;20413;-50
2023/07/19 01:23:19;;;;;;;2.88;2.05;;;19.20;54.00;;;;;;4838358;29;20042;-44
2023/07/19 01:25:50;;;;;;;2.67;1.75;;;19.20;54.30;;;;;;4834792;29;20054;-49
2023/07/19 01:28:19;;;;;;;2.13;1.70;;;19.20;54.40;;;;;;4835501;29;20042;-45
2023/07/19 01:30:45;;;;;;;2.25;2.05;;;19.10;54.30;;;;;;4839073;29;20531;-45
2023/07/19 01:33:15;;;;;;;4.32;2.47;;;19.10;54.40;;;;;;4838623;29;20124;-45
2023/07/19 01:35:54;;;;;;;3.97;1.85;;;19.10;54.50;;;;;;4829742;29;20132;-45
2023/07/19 01:38:23;;;;;;;2.90;1.98;;;19.10;54.60;;;;;;4829358;29;20050;-44
2023/07/19 01:40:54;;;;;;;2.10;1.73;;;19.10;54.70;;;;;;4829962;29;20043;-49
2023/07/19 01:43:21;;;;;;;1.92;1.75;;;19.00;54.70;;;;;;4828896;29;20089;-45
2023/07/19 01:45:48;;;;;;;2.53;1.70;;;19.00;54.80;;;;;;4841408;29;20042;-45
2023/07/19 01:48:19;;;;;;;3.22;1.88;;;19.00;54.80;;;;;;4838044;29;20065;-45
2023/07/19 01:50:47;;;;;;;3.22;2.05;;;19.00;54.80;;;;;;4831600;29;20081;-44
2023/07/19 01:53:14;;;;;;;2.40;1.65;;;19.00;54.90;;;;;;4831269;29;20058;-44
2023/07/19 01:55:44;;;;;;;2.00;1.80;;;19.00;54.90;;;;;;4835900;29;20050;-46
2023/07/19 01:58:14;;;;;;;1.58;1.48;;;19.00;55.20;;;;;;4834079;29;20569;-45
2023/07/19 02:00:43;;;;;;;2.30;1.92;;;19.00;55.30;;;;;;4837104;29;20046;-48
2023/07/19 02:03:10;;;;;;;1.90;1.70;;;19.00;55.00;;;;;;4832716;29;20141;-45
2023/07/19 02:05:38;;;;;;;2.08;1.88;;;19.00;55.10;;;;;;4837101;29;20106;-48
2023/07/19 02:08:05;;;;;;;3.88;2.05;;;18.90;55.10;;;;;;4836636;29;20046;-46
2023/07/19 02:10:32;;;;;;;2.17;1.88;;;18.90;55.20;;;;;;4838215;29;20095;-46
2023/07/19 02:13:03;;;;;;;4.00;2.13;;;18.90;55.50;;;;;;4835224;29;20065;-49
2023/07/19 02:15:32;;;;;;;3.72;2.05;;;18.90;55.80;;;;;;4837709;29;20413;-47
2023/07/19 02:18:02;;;;;;;2.78;1.90;;;18.90;56.40;;;;;;4837226;29;20073;-45
2023/07/19 02:20:30;;;;;;;3.97;2.60;;;19.00;56.30;;;;;;4831325;29;20062;-45
2023/07/19 02:22:59;;;;;;;3.45;2.53;;;19.00;56.50;;;;;;4839023;29;20121;-48
2023/07/19 02:25:31;;;;;;;;;;;19.00;56.50;;;;;;4839165;29;20110;-44
2023/07/19 02:28:00;;;;;;;3.28;2.33;;;19.10;56.00;;;;;;4837477;29;19936;-46
2023/07/19 02:30:30;;;;;;;3.65;2.70;;;19.10;55.90;;;;;;4839826;29;20421;-44
2023/07/19 02:33:00;;;;;;;3.47;2.70;;;19.10;56.20;;;;;;4851172;29;20117;-46
2023/07/19 02:35:27;;;;;;;5.22;2.95;;;19.10;56.20;;;;;;4834267;29;20057;-45
2023/07/19 02:37:56;;;;;;;3.45;2.58;;;19.10;56.30;;;;;;4835057;29;20102;-45
2023/07/19 02:40:23;;;;;;;2.28;1.85;;;19.10;56.20;;;;;;4855375;29;20132;-46
2023/07/19 02:42:51;;;;;;;4.43;2.38;;;19.10;56.20;;;;;;4834350;29;20082;-45
2023/07/19 02:45:19;;;;;;;2.78;2.00;;;19.10;56.10;;;;;;4833336;29;20054;-47
2023/07/19 02:47:48;;;;;;;3.30;2.10;;;19.10;56.10;;;;;;4840707;29;20505;-48
2023/07/19 02:50:18;;;;;;;4.28;2.00;;;19.10;56.10;;;;;;4841322;29;20450;-47
2023/07/19 02:52:47;;;;;;;4.25;2.05;;;19.00;56.10;;;;;;4840687;29;20038;-49
2023/07/19 02:55:14;;;;;;;3.10;2.20;;;19.00;55.80;;;;;;4835437;29;20069;-48
2023/07/19 02:57:50;;;;;;;2.40;2.20;;;19.00;55.90;;;;;;4839851;29;20124;-48
2023/07/19 03:00:20;;;;;;;2.40;2.20;;;18.90;56.40;;;;;;4839911;29;20678;-45
2023/07/19 03:02:53;;;;;;;3.92;2.55;;;18.90;56.00;;;;;;4840114;29;20571;-49
2023/07/19 03:05:23;;;;;;;3.17;2.63;;;18.90;56.10;;;;;;4840397;29;20607;-47
2023/07/19 03:07:50;;;;;;;5.10;2.50;;;18.80;56.00;;;;;;4844072;29;20439;-47
2023/07/19 03:10:17;;;;;;;3.42;2.40;;;18.80;56.00;;;;;;4839630;29;20057;-46
2023/07/19 03:12:47;;;;;;;3.00;2.10;;;18.80;55.90;;;;;;4837919;29;20048;-46
2023/07/19 03:15:21;;;;;;;4.70;3.25;;;18.70;56.00;;;;;;4840708;29;20382;-45
2023/07/19 03:17:49;;;;;;;4.68;2.72;;;18.70;56.10;;;;;;4838753;29;20128;-47
2023/07/19 03:20:16;;;;;;;5.20;2.65;;;18.70;56.30;;;;;;4839133;29;20042;-46
2023/07/19 03:22:43;;;;;;;3.63;3.20;;;18.60;56.40;;;;;;4821667;29;20042;-45
2023/07/19 03:25:12;;;;;;;4.80;2.58;;;18.60;56.60;;;;;;4837703;29;20408;-47
2023/07/19 03:27:42;;;;;;;4.53;3.35;;;18.70;56.70;;;;;;4833630;29;20062;-45
2023/07/19 03:30:10;;;;;;;3.75;2.38;;;18.60;56.90;;;;;;4852513;29;20052;-48
2023/07/19 03:32:42;;;;;;;2.55;2.35;;;18.60;57.00;;;;;;4839543;29;20136;-49
2023/07/19 03:35:09;;;;;;;5.28;3.20;;;18.70;57.30;;;;;;4839238;29;20042;-46
2023/07/19 03:37:36;;;;;;;5.10;2.60;;;18.70;57.80;;;;;;4836434;29;20054;-49
2023/07/19 03:40:04;;;;;;;6.93;3.10;;;18.60;57.90;;;;;;4839353;29;20699;-48
2023/07/19 03:42:33;;;;;;;3.10;2.45;;;18.70;58.00;;;;;;4836803;29;20038;-48
2023/07/19 03:45:00;;;;;;;4.95;3.08;;;18.70;58.00;;;;;;4839095;29;20080;-45
2023/07/19 03:47:34;;;;;;;5.35;3.20;;;18.70;58.10;;;;;;4837155;29;20053;-49
2023/07/19 03:50:05;;;;;;;3.30;2.88;;;18.70;58.00;;;;;;4839474;29;20132;-46
2023/07/19 03:52:32;;;;;;;3.72;2.45;;;18.80;58.30;;;;;;4851856;29;20064;-45
2023/07/19 03:54:59;;;;;;;6.93;3.13;;;18.80;58.20;;;;;;4836162;29;20517;-47
2023/07/19 03:57:32;;;;;;;4.20;2.95;;;18.80;58.30;;;;;;4838602;29;20050;-46
2023/07/19 04:00:01;;;;;;;3.85;2.83;;;18.80;58.40;;;;;;4839462;29;20460;-46
2023/07/19 04:02:45;;;;;;;3.00;2.70;;;18.90;58.60;;;;;;4837235;29;20061;-49
2023/07/19 04:05:22;;;;;;;4.22;2.90;;;18.90;58.70;;;;;;4839034;29;20608;-48
2023/07/19 04:07:49;;;;;;;4.25;2.75;;;18.90;59.00;;;;;;4838691;29;20134;-46
2023/07/19 04:10:17;;;;;;;6.82;2.97;;;18.90;58.50;;;;;;4840354;29;20045;-45
2023/07/19 04:12:47;;;;;;;3.83;2.75;;;19.00;58.70;;;;;;4835595;29;20057;-47
2023/07/19 04:15:15;;;;;;;4.68;2.92;;;19.00;58.80;;;;;;4838376;29;20053;-46
2023/07/19 04:17:43;;;;;;;6.95;3.63;;;19.00;58.90;;;;;;4837898;29;20547;-45
2023/07/19 04:20:14;;;;;;;4.50;3.58;;;19.10;59.20;;;;;;4837518;29;20073;-45
2023/07/19 04:22:43;;;;;;;6.57;3.85;;;19.10;59.30;;;;;;4839230;29;20145;-46
2023/07/19 04:25:14;;;;;;;4.63;3.47;;;19.10;59.40;;;;;;4837602;29;20049;-45
2023/07/19 04:27:41;;;;;;;5.22;3.63;;;19.20;59.40;;;;;;4833987;29;20085;-47
2023/07/19 04:30:12;;;;;;;5.72;3.67;;;19.20;59.60;;;;;;4838907;29;20072;-49
2023/07/19 04:32:43;;;;;;;5.25;3.85;;;19.20;59.60;;;;;;4840288;29;20461;-49
2023/07/19 04:35:10;;;;;;;5.18;3.85;;;19.30;59.80;;;;;;4837701;29;20049;-51
2023/07/19 04:37:38;;;;;;;5.50;3.70;;;19.30;59.70;;;;;;4835564;29;20056;-48
2023/07/19 04:40:08;;;;;;;4.88;4.05;;;19.40;60.00;;;;;;4837794;29;20132;-48
2023/07/19 04:42:36;;;;;;;7.25;3.75;;;19.50;60.20;;;;;;4834201;29;20042;-48
2023/07/19 04:45:03;;;;;;;5.60;3.63;;;19.50;60.10;;;;;;4835481;29;20038;-48
2023/07/19 04:47:32;;;;;;;3.53;3.22;;;19.60;59.90;;;;;;4834211;29;20541;-49
2023/07/19 04:49:58;;;;;;;6.03;4.60;;;19.60;60.10;;;;;;4837067;29;20077;-45
2023/07/19 04:52:25;;;;;;;4.80;4.32;;;19.80;60.00;;;;;;4837404;29;20118;-50
2023/07/19 04:54:52;;;;;;;4.90;4.35;;;19.70;60.00;;;;;;4834870;29;20073;-49
2023/07/19 04:57:19;;;;;;;7.28;4.85;;;19.80;60.00;;;;;;4838624;29;20038;-49
2023/07/19 04:59:46;;;;;;;6.72;4.80;;;19.90;59.80;;;;;;4836600;29;20042;-51
2023/07/19 05:02:13;;;;;;;4.80;3.97;;;19.90;59.60;;;;;;4837349;29;20041;-48
2023/07/19 05:04:40;;;;;;;5.75;4.22;;;19.90;59.40;;;;;;4834944;29;20077;-50
2023/07/19 05:07:09;;;;;;;7.38;4.32;;;20.00;59.40;;;;;;4830461;29;20133;-51
2023/07/19 05:09:36;;;;;;;4.25;3.72;;;20.10;59.40;;;;;;4836240;29;20126;-46
2023/07/19 05:12:02;;;;;;;4.40;4.00;;;20.20;59.50;;;;;;4837706;29;20054;-50
2023/07/19 05:14:29;;;;;;;4.45;3.58;;;20.20;59.80;;;;;;4832233;29;20058;-48
2023/07/19 05:16:56;;;;;;;5.07;4.57;;;20.30;60.00;;;;;;4833197;29;20057;-45
2023/07/19 05:19:23;;;;;;;7.03;5.15;;;20.40;59.50;;;;;;4835518;29;20054;-48
2023/07/19 05:21:50;;;;;;;6.38;4.72;;;20.40;59.20;;;;;;4836712;29;20061;-49
2023/07/19 05:24:16;;;;;;;5.60;4.80;;;20.50;59.40;;;;;;4830580;29;20077;-51
2023/07/19 05:26:44;;;;;;;7.60;4.72;;;20.60;59.20;;;;;;4833117;29;20049;-46
2023/07/19 05:29:11;;;;;;;6.90;4.47;;;20.60;58.90;;;;;;4837710;29;20090;-46
2023/07/19 05:31:37;;;;;;;6.28;4.63;;;20.60;58.80;;;;;;4838220;29;20054;-49
2023/07/19 05:34:04;;;;;;;7.35;4.65;;;20.70;59.00;;;;;;4834892;29;20049;-45
2023/07/19 05:36:31;;;;;;;5.28;3.97;;;20.70;59.00;;;;;;4833872;29;20771;-47
2023/07/19 05:38:58;;;;;;;5.57;4.63;;;20.80;58.90;;;;;;4835280;29;20069;-50
2023/07/19 05:41:25;;;;;;;5.30;4.75;;;20.80;58.50;;;;;;4838007;29;20081;-45
2023/07/19 05:43:53;;;;;;;7.03;4.90;;;20.80;58.40;;;;;;4837821;29;20088;-46
2023/07/19 05:46:37;;;;;;;6.90;4.90;;;20.90;58.40;;;;;;4835720;29;20149;-47
2023/07/19 05:49:04;;;;;;;5.85;4.53;;;20.90;58.30;;;;;;4835045;29;20125;-46
2023/07/19 05:51:30;;;;;;;5.78;4.30;;;21.00;58.20;;;;;;4837859;29;20058;-49
2023/07/19 05:53:57;;;;;;;6.40;4.60;;;21.00;58.40;;;;;;4836322;29;20057;-47
2023/07/19 05:56:24;;;;;;;6.93;4.82;;;21.00;59.20;;;;;;4837771;29;20041;-50
2023/07/19 05:58:51;;;;;;;6.65;4.82;;;21.10;58.40;;;;;;4839310;29;20663;-49
2023/07/19 06:01:19;;;;;;;6.25;4.63;;;21.10;58.30;;;;;;4833535;29;20103;-46
2023/07/19 06:03:48;;;;;;;4.60;3.97;;;21.20;58.30;;;;;;4835047;29;20054;-50
2023/07/19 06:06:15;;;;;;;8.38;4.25;;;21.20;58.20;;;;;;4835267;29;20046;-51
2023/07/19 06:08:44;;;;;;;4.93;4.50;;;21.30;58.30;;;;;;4838506;29;20435;-50
2023/07/19 06:11:11;;;;;;;6.18;4.32;;;21.40;57.90;;;;;;4837589;29;20042;-48
2023/07/19 06:13:40;;;;;;;6.00;4.20;;;21.40;58.40;;;;;;4839415;29;20438;-51
2023/07/19 06:16:07;;;;;;;5.20;4.32;;;21.50;57.70;;;;;;4839004;29;20117;-52
2023/07/19 06:18:33;;;;;;;5.10;4.50;;;21.60;57.70;;;;;;4841859;29;20078;-47
2023/07/19 06:21:00;;;;;;;4.32;3.92;;;21.60;57.40;;;;;;4841660;29;20120;-51
2023/07/19 06:23:27;;;;;;;4.55;4.15;;;21.70;57.50;;;;;;4841830;29;20050;-48
2023/07/19 06:25:54;;;;;;;5.80;4.38;;;21.70;57.30;;;;;;4839544;29;20046;-48
2023/07/19 06:28:21;;;;;;;4.38;3.95;;;21.80;57.80;;;;;;4840539;29;20046;-50
2023/07/19 06:30:47;;;;;;;4.82;4.28;;;21.90;57.00;;;;;;4841310;29;20069;-51
2023/07/19 06:33:16;;;;;;;4.38;3.97;;;21.90;56.90;;;;;;4839254;29;20412;-46
2023/07/19 06:35:43;;;;;;;5.57;4.30;;;21.90;56.80;;;;;;4841598;29;20058;-47
2023/07/19 06:38:10;;;;;;;6.93;4.40;;;22.00;56.60;;;;;;4838757;29;20046;-50
2023/07/19 06:40:37;;;;;;;5.18;4.60;;;22.10;56.70;;;;;;4842400;29;20656;-50
2023/07/19 06:43:05;;;;;;;5.22;4.43;;;22.20;56.80;;;;;;4838813;29;20125;-51
2023/07/19 06:45:32;;;;;;;7.22;4.35;;;22.20;56.70;;;;;;4839727;29;20073;-49
2023/07/19 06:47:58;;;;;;;5.00;4.47;;;22.30;56.30;;;;;;4837910;29;20071;-46
2023/07/19 06:50:28;;;;;;;4.25;3.85;;;22.30;55.90;;;;;;4842060;29;20543;-47
2023/07/19 06:52:55;;;;;;;5.70;3.83;;;22.40;55.70;;;;;;4838548;29;20069;-50
2023/07/19 06:55:23;;;;;;;4.10;3.35;;;22.40;55.40;;;;;;4834142;29;20262;-49
2023/07/19 06:57:49;;;;;;;3.97;3.30;;;22.40;55.40;;;;;;4840095;29;20089;-51
2023/07/19 07:00:16;;;;;;;5.22;3.38;;;22.50;55.30;;;;;;4837816;29;20117;-49
2023/07/19 07:02:43;;;;;;;9.85;4.53;;;22.50;55.40;;;;;;4837859;29;20054;-49
2023/07/19 07:05:10;;;;;;;6.22;3.90;;;22.50;55.30;;;;;;4838422;29;20046;-46
2023/07/19 07:07:39;;;;;;;4.60;4.03;;;22.50;55.50;;;;;;4840407;29;20106;-47
2023/07/19 07:10:08;;;;;;;6.20;3.67;;;22.50;56.30;;;;;;4841132;29;20102;-52
2023/07/19 07:12:36;;;;;;;4.40;3.90;;;22.50;56.20;;;;;;4840623;29;20064;-50
2023/07/19 07:15:03;;;;;;;6.97;3.80;;;22.50;56.40;;;;;;4838513;29;20711;-49
2023/07/19 07:17:30;;;;;;;6.07;3.50;;;22.60;56.90;;;;;;4840478;29;20425;-50
2023/07/19 07:19:57;;;;;;;5.38;3.67;;;22.60;56.70;;;;;;4840028;29;20052;-49
2023/07/19 07:22:26;;;;;;;5.25;4.03;;;22.60;57.50;;;;;;4837213;29;20042;-47
2023/07/19 07:24:52;;;;;;;5.85;4.47;;;22.60;56.80;;;;;;4837403;29;20441;-51
2023/07/19 07:27:19;;;;;;;7.00;4.72;;;22.60;57.30;;;;;;4840125;29;20125;-46
2023/07/19 07:29:46;;;;;;;8.25;3.70;;;22.70;57.50;;;;;;4841306;29;20128;-50
2023/07/19 07:32:12;;;;;;;7.22;4.72;;;22.70;57.30;;;;;;4840820;29;20417;-47
2023/07/19 07:34:39;;;;;;;5.75;4.90;;;22.80;57.30;;;;;;4835697;29;20042;-48
2023/07/19 07:37:06;;;;;;;7.03;4.13;;;22.80;57.50;;;;;;4837754;29;20073;-51
2023/07/19 07:39:35;;;;;;;5.80;4.47;;;22.90;57.30;;;;;;4840137;29;20042;-50
2023/07/19 07:42:02;;;;;;;7.93;4.38;;;22.90;57.10;;;;;;4838266;29;20516;-48
2023/07/19 07:44:29;;;;;;;7.75;4.47;;;23.00;57.20;;;;;;4837302;29;20396;-49
2023/07/19 07:46:56;;;;;;;5.68;4.47;;;23.10;56.60;;;;;;4836377;29;20462;-50
2023/07/19 07:49:23;;;;;;;7.85;4.20;;;23.10;56.40;;;;;;4840399;29;20184;-48
2023/07/19 07:51:50;;;;;;;7.55;4.75;;;23.10;56.20;;;;;;4839896;29;20066;-50
2023/07/19 07:54:16;;;;;;;5.72;5.13;;;23.10;56.20;;;;;;4835154;29;20046;-45
2023/07/19 07:56:43;;;;;;;8.98;4.82;;;23.10;56.20;;;;;;4839669;29;20069;-48
2023/07/19 07:59:10;;;;;;;6.35;4.20;;;23.00;56.20;;;;;;4840284;29;20052;-45
2023/07/19 08:01:37;;;;;;;5.57;4.35;;;23.00;56.20;;;;;;4837031;29;20041;-49
2023/07/19 08:04:06;;;;;;;7.45;4.03;;;23.00;56.40;;;;;;4834793;29;20632;-52
2023/07/19 08:06:33;;;;;;;6.18;4.28;;;23.00;56.30;;;;;;4838955;29;20049;-49
2023/07/19 08:08:59;;;;;;;6.90;4.93;;;23.00;56.60;;;;;;4839555;29;20073;-48
2023/07/19 08:11:26;;;;;;;5.43;4.65;;;23.00;56.70;;;;;;4838070;29;20092;-49
2023/07/19 08:13:53;;;;;;;8.23;4.28;;;23.00;56.70;;;;;;4836746;29;20088;-50
2023/07/19 08:16:20;;;;;;;6.78;4.18;;;23.10;56.80;;;;;;4839564;29;20113;-45
2023/07/19 08:18:47;;;;;;;4.88;4.07;;;23.10;56.80;;;;;;4834757;29;20058;-46
2023/07/19 08:21:14;;;;;;;4.38;3.97;;;23.10;56.70;;;;;;4838404;29;20129;-51
2023/07/19 08:24:00;;;;;;;6.72;4.53;;;23.20;56.80;;;;;;4836689;29;20114;-49
2023/07/19 08:26:26;;;;;;;4.82;4.35;;;23.20;56.90;;;;;;4838830;29;20145;-48
2023/07/19 08:28:53;;;;;;;5.00;4.32;;;23.30;56.50;;;;;;4837008;29;20038;-50
2023/07/19 08:31:20;;;;;;;5.65;4.28;;;23.30;56.70;;;;;;4839367;29;20120;-48
2023/07/19 08:33:47;;;;;;;6.53;4.25;;;23.40;56.80;;;;;;4837009;29;20045;-49
2023/07/19 08:36:13;;;;;;;7.70;4.88;;;23.40;56.70;;;;;;4835428;29;20045;-49
2023/07/19 08:38:40;;;;;;;5.20;4.35;;;23.60;56.00;;;;;;4837619;29;20069;-48
2023/07/19 08:41:11;;;;;;;5.15;3.67;;;23.60;56.00;;;;;;4837295;29;20114;-50
2023/07/19 08:43:38;;;;;;;6.22;3.90;;;23.70;55.70;;;;;;4835556;29;20073;-50
2023/07/19 08:46:07;;;;;;;5.85;4.03;;;23.70;55.90;;;;;;4836487;29;20073;-52
2023/07/19 08:48:36;;;;;;;4.07;3.65;;;23.80;56.20;;;;;;4838927;29;20050;-48
2023/07/19 08:51:03;;;;;;;8.98;4.03;;;23.90;56.60;;;;;;4839891;29;20110;-46
2023/07/19 08:53:30;;;;;;;7.45;4.38;;;24.00;56.80;;;;;;4836831;29;20077;-50
2023/07/19 08:55:57;;;;;;;5.03;4.15;;;24.10;56.50;;;;;;4836361;29;20045;-50
2023/07/19 08:58:24;;;;;;;6.13;3.85;;;24.20;56.40;;;;;;4838954;29;20072;-50
2023/07/19 09:00:50;;;;;;;9.30;3.83;;;24.30;55.70;;;;;;4838681;29;20125;-52
2023/07/19 09:03:17;;;;;;;5.95;3.55;;;24.40;56.20;;;;;;4835277;29;20038;-47
2023/07/19 09:05:45;;;;;;;5.85;4.10;;;24.50;56.20;;;;;;4838996;29;20717;-48
2023/07/19 09:08:12;;;;;;;5.05;4.30;;;24.60;56.40;;;;;;4838591;29;20098;-49
2023/07/19 09:10:44;;;;;;;4.72;3.85;;;24.70;56.00;;;;;;4837489;29;20053;-47
2023/07/19 09:13:11;;;;;;;6.05;3.72;;;24.80;55.60;;;;;;4836925;29;20613;-51
2023/07/19 09:15:39;;;;;;;6.28;4.18;;;24.90;55.50;;;;;;4839150;29;20081;-49
2023/07/19 09:18:06;;;;;;;7.20;4.13;;;25.00;54.60;;;;;;4833290;29;20069;-48
2023/07/19 09:20:37;;;;;;;6.22;3.78;;;25.10;54.70;;;;;;4833778;29;20049;-46
2023/07/19 09:23:06;;;;;;;6.63;4.20;;;25.10;53.90;;;;;;4837286;29;20049;-52
2023/07/19 09:25:51;;;;;;;5.05;3.25;;;25.20;53.90;;;;;;4833566;29;20042;-51
2023/07/19 09:28:22;;;;;;;4.18;3.80;;;25.40;53.50;;;;;;4837071;29;20053;-48
2023/07/19 09:30:58;;;;;;;5.68;3.65;;;25.50;53.30;;;;;;4838537;29;20513;-49
2023/07/19 09:33:37;;;;;;;6.15;2.85;;;25.50;52.60;;;;;;4827651;29;20060;-46
2023/07/19 09:36:04;;;;;;;5.22;3.00;;;25.60;52.40;;;;;;4837637;29;20050;-50
2023/07/19 09:38:31;;;;;;;5.60;2.63;;;25.60;51.20;;;;;;4838619;29;20481;-47
2023/07/19 09:40:58;;;;;;;2.90;2.58;;;25.60;50.50;;;;;;4839428;29;20050;-46
2023/07/19 09:43:25;;;;;;;3.63;2.88;;;25.60;51.60;;;;;;4835717;29;20046;-50
2023/07/19 09:45:52;;;;;;;3.97;2.88;;;25.70;50.60;;;;;;4837718;29;20069;-50
2023/07/19 09:48:20;;;;;;;4.30;3.55;;;25.70;50.30;;;;;;4837644;29;20067;-45
2023/07/19 09:50:51;;;;;;;5.22;2.88;;;25.70;50.40;;;;;;4831903;29;20047;-51
2023/07/19 09:53:23;;;;;;;3.60;2.92;;;25.80;50.10;;;;;;4837342;29;20077;-50
2023/07/19 09:55:52;;;;;;;4.82;3.40;;;25.80;49.70;;;;;;4837428;29;20106;-47
2023/07/19 09:58:21;;;;;;;7.75;3.33;;;25.90;49.80;;;;;;4837438;29;20046;-48
2023/07/19 10:00:49;;;;;;;4.40;2.83;;;25.90;49.80;;;;;;4837562;29;20042;-53
2023/07/19 10:03:20;;;;;;;2.95;2.60;;;25.90;49.90;;;;;;4835849;29;20082;-50
2023/07/19 10:05:58;;;;;;;4.18;3.15;;;26.00;49.40;;;;;;4833665;29;20054;-52
2023/07/19 10:08:25;;;;;;;3.22;2.38;;;26.10;48.90;;;;;;4837481;29;20054;-48
2023/07/19 10:10:59;;;;;;;4.10;2.13;;;26.10;48.80;;;;;;4837554;29;20545;-53
2023/07/19 10:13:30;;;;;;;3.28;2.45;;;26.20;48.40;;;;;;4833850;29;20133;-48
2023/07/19 10:15:59;;;;;;;3.28;2.38;;;26.30;48.20;;;;;;4833509;29;20060;-52
2023/07/19 10:18:29;;;;;;;2.10;1.80;;;26.40;48.10;;;;;;4837296;29;20064;-50
2023/07/19 10:21:00;;;;;;;3.75;1.83;;;26.40;47.50;;;;;;4830534;29;20713;-49
2023/07/19 10:23:30;;;;;;;4.70;2.00;;;26.60;46.70;;;;;;4831534;29;20081;-52
2023/07/19 10:26:06;;;;;;;4.80;1.75;;;26.60;46.90;;;;;;4833950;29;20042;-50
2023/07/19 10:28:32;;;;;;;3.13;1.10;;;26.70;46.60;;;;;;4834444;29;20473;-50
2023/07/19 10:31:01;;;;;;;2.10;1.17;;;26.80;45.20;;;;;;4829814;29;20134;-50
2023/07/19 10:33:43;;;;;;;3.83;1.10;;;26.90;43.90;;;;;;4822235;29;20060;-50
2023/07/19 10:36:13;;;;;;;3.85;1.20;;;26.90;44.00;;;;;;4829785;29;20057;-50
2023/07/19 10:38:40;;;;;;;2.35;1.27;;;26.90;44.20;;;;;;4832772;29;20070;-53
2023/07/19 10:41:09;;;;;;;3.22;1.17;;;27.00;43.90;;;;;;4836684;29;20094;-52
2023/07/19 10:43:37;;;;;;;2.70;1.50;;;27.00;43.90;;;;;;4831010;29;20117;-50
2023/07/19 10:46:07;;;;;;;2.92;1.17;;;27.10;43.40;;;;;;4835475;29;20120;-53
2023/07/19 10:48:36;;;;;;;1.48;0.90;;;27.00;42.90;;;;;;4840808;29;20050;-52
2023/07/19 10:51:10;;;;;;;1.75;1.35;;;27.00;42.60;;;;;;4840943;29;20049;-52
2023/07/19 10:53:50;;;;;;;1.42;0.88;;;26.90;42.40;;;;;;4833046;29;20050;-53
2023/07/19 10:56:18;;;;;;;1.70;0.98;;;26.90;41.90;;;;;;4839800;29;20050;-51
2023/07/19 10:58:47;;;;;;;1.33;1.23;;;26.80;42.40;;;;;;4838431;29;20054;-53
2023/07/19 11:01:15;;;;;;;1.98;1.30;;;26.80;42.20;;;;;;4838713;29;20050;-52
2023/07/19 11:03:46;;;;;;;4.45;1.90;;;26.70;42.10;;;;;;4837675;29;20041;-54
2023/07/19 11:06:13;;;;;;;2.08;1.13;;;26.70;41.90;;;;;;4837794;29;20069;-53
2023/07/19 11:08:40;;;;;;;2.50;1.50;;;26.70;42.60;;;;;;4834400;29;21451;-53
2023/07/19 11:11:09;;;;;;;5.65;1.73;;;26.70;42.00;;;;;;4840566;29;20102;-53
2023/07/19 11:13:36;;;;;;;2.75;1.35;;;26.70;41.50;;;;;;4836337;29;20677;-50
2023/07/19 11:16:03;;;;;;;3.63;1.52;;;26.70;41.40;;;;;;4911700;23;20131;-58
2023/07/19 11:18:30;;;;;;;2.35;1.38;;;26.80;41.10;;;;;;4896460;29;20306;-58
2023/07/19 11:20:58;;;;;;;4.13;1.70;;;26.90;41.00;;;;;;4900463;29;20411;-58
2023/07/19 11:23:29;;;;;;;2.65;1.38;;;27.00;41.10;;;;;;4896275;29;20049;-58
2023/07/19 11:26:07;;;;;;;1.08;0.90;;;27.10;40.70;;;;;;4878131;29;20131;-58
2023/07/19 11:28:35;;;;;;;2.45;1.40;;;27.30;41.10;;;;;;4878775;29;20057;-58
2023/07/19 11:31:03;;;;;;;2.25;1.65;;;27.40;41.20;;;;;;4877993;29;20068;-58
2023/07/19 11:33:30;;;;;;;3.88;1.40;;;27.50;40.40;;;;;;4876229;29;20049;-58
2023/07/19 11:35:57;;;;;;;1.42;1.30;;;27.60;40.30;;;;;;4872941;29;20045;-58
2023/07/19 11:38:24;;;;;;;3.67;1.20;;;27.70;40.60;;;;;;4877602;29;20065;-57
2023/07/19 11:40:50;;;;;;;2.25;1.48;;;27.70;40.80;;;;;;4876199;29;20195;-58
2023/07/19 11:43:24;;;;;;;1.95;1.60;;;27.80;40.80;;;;;;4872152;29;20101;-58
2023/07/19 11:45:51;;;;;;;2.53;1.70;;;28.00;39.80;;;;;;4876096;29;20116;-59
2023/07/19 11:48:18;;;;;;;2.33;1.40;;;28.00;40.00;;;;;;4877395;29;20573;-58
2023/07/19 11:50:44;;;;;;;3.20;1.50;;;28.10;40.10;;;;;;4879168;29;20069;-59
2023/07/19 11:53:11;;;;;;;1.92;1.58;;;28.20;40.50;;;;;;4875071;29;20041;-59
2023/07/19 11:55:38;;;;;;;2.78;1.90;;;28.20;40.20;;;;;;4870997;29;20559;-59
2023/07/19 11:58:05;;;;;;;2.85;1.58;;;28.30;39.70;;;;;;4875777;29;20169;-59
2023/07/19 12:00:33;;;;;;;1.80;1.58;;;28.30;39.60;;;;;;4879586;29;20577;-59
2023/07/19 12:03:01;;;;;;;3.80;1.35;;;28.30;39.70;;;;;;4882998;29;20496;-58
2023/07/19 12:05:29;;;;;;;4.13;1.67;;;28.30;39.80;;;;;;4876514;29;20093;-58
2023/07/19 12:07:56;;;;;;;1.55;1.20;;;28.40;40.20;;;;;;4879084;29;20045;-59
2023/07/19 12:10:24;;;;;;;2.38;1.83;;;28.40;40.30;;;;;;4876266;29;20473;-59
2023/07/19 12:12:50;;;;;;;2.53;1.70;;;28.50;40.30;;;;;;4873826;29;20400;-58
2023/07/19 12:15:18;;;;;;;2.80;1.75;;;28.60;39.40;;;;;;4874713;29;20752;-59
2023/07/19 12:17:45;;;;;;;3.67;1.80;;;28.60;39.50;;;;;;4875222;29;20135;-59
2023/07/19 12:20:12;;;;;;;3.55;1.73;;;28.70;39.50;;;;;;4877894;29;20049;-59
2023/07/19 12:22:41;;;;;;;2.92;2.00;;;28.80;39.40;;;;;;4873397;29;20614;-59
2023/07/19 12:25:08;;;;;;;1.88;1.67;;;28.80;39.10;;;;;;4874945;29;20041;-59
2023/07/19 12:27:35;;;;;;;2.85;1.30;;;28.90;39.50;;;;;;4875662;29;20085;-59
2023/07/19 12:30:02;;;;;;;2.67;1.60;;;28.90;39.70;;;;;;4875363;29;20119;-59
2023/07/19 12:32:32;;;;;;;2.45;1.63;;;28.90;39.10;;;;;;4877993;29;20053;-59
2023/07/19 12:35:00;;;;;;;2.97;1.70;;;29.00;38.90;;;;;;4876325;29;20068;-59
2023/07/19 12:37:26;;;;;;;3.97;2.08;;;29.00;39.20;;;;;;4876325;29;20112;-59
2023/07/19 12:39:53;;;;;;;1.45;1.25;;;29.00;38.70;;;;;;4878895;29;20053;-59
2023/07/19 12:42:20;;;;;;;2.20;1.25;;;29.00;39.40;;;;;;4875051;29;20093;-59
2023/07/19 12:44:46;;;;;;;2.22;1.42;;;29.00;39.30;;;;;;4875937;29;20425;-59
2023/07/19 12:47:13;;;;;;;1.73;1.20;;;29.00;39.10;;;;;;4871953;29;20045;-59
2023/07/19 12:49:40;;;;;;;6.07;2.50;;;29.00;38.80;;;;;;4876775;29;20085;-59
2023/07/19 12:52:07;;;;;;;3.78;2.38;;;29.00;39.00;;;;;;4876684;29;20440;-58
2023/07/19 12:54:34;;;;;;;2.40;1.20;;;29.00;38.70;;;;;;4874196;29;20591;-59